createdAt,value
2023-01-06T00:00:15.540Z,82.70
2023-01-06T00:02:42.478Z,82.80
2023-01-06T00:05:10.038Z,82.50
2023-01-06T00:07:36.647Z,82.70
2023-01-06T00:10:03.427Z,82.80
2023-01-06T00:12:29.783Z,83.10
2023-01-06T00:14:57.577Z,82.90
2023-01-06T00:17:24.610Z,83.30
2023-01-06T00:19:51.440Z,83.10
2023-01-06T00:22:17.925Z,83.60
2023-01-06T00:24:44.154Z,83.20
2023-01-06T00:27:10.376Z,83.30
2023-01-06T00:29:36.546Z,83.90
2023-01-06T00:32:02.867Z,83.10
2023-01-06T00:34:29.619Z,83.60
2023-01-06T00:36:55.862Z,82.50
2023-01-06T00:39:22.271Z,83.00
2023-01-06T00:42:03.572Z,83.60
2023-01-06T00:44:38.256Z,83.60
2023-01-06T00:47:06.736Z,84.00
2023-01-06T00:49:33.101Z,84.50
2023-01-06T00:51:59.422Z,84.00
2023-01-06T00:54:25.851Z,83.80
2023-01-06T00:56:52.953Z,84.00
2023-01-06T00:59:20.862Z,83.90
2023-01-06T01:01:48.778Z,84.20
2023-01-06T01:04:15.880Z,84.40
2023-01-06T01:06:43.446Z,84.00
2023-01-06T01:09:13.027Z,84.10
2023-01-06T01:11:58.321Z,84.70
2023-01-06T01:14:24.642Z,84.40
2023-01-06T01:16:50.816Z,83.70
2023-01-06T01:19:17.419Z,83.90
2023-01-06T01:21:43.666Z,84.20
2023-01-06T01:24:09.842Z,84.10
2023-01-06T01:26:36.080Z,84.30
2023-01-06T01:29:02.322Z,84.00
2023-01-06T01:31:28.777Z,84.00
2023-01-06T01:33:55.009Z,84.20
2023-01-06T01:36:21.301Z,84.20
2023-01-06T01:38:48.561Z,84.60
2023-01-06T01:41:17.622Z,84.40
2023-01-06T01:46:05.812Z,84.90
2023-01-06T01:48:33.505Z,85.10
2023-01-06T01:51:02.155Z,86.20
2023-01-06T01:53:31.266Z,86.20
2023-01-06T01:55:58.408Z,86.30
2023-01-06T01:58:46.535Z,86.40
2023-01-06T02:01:13.158Z,87.50
2023-01-06T02:03:40.505Z,86.80
2023-01-06T02:06:13.276Z,88.10
2023-01-06T02:11:43.999Z,86.90
2023-01-06T02:14:12.444Z,86.40
2023-01-06T02:19:55.986Z,86.80
2023-01-06T02:25:19.397Z,87.20
2023-01-06T02:28:25.522Z,87.20
2023-01-06T02:33:32.632Z,85.70
2023-01-06T02:39:46.738Z,86.70
2023-01-06T02:44:02.396Z,86.80
2023-01-06T02:46:58.633Z,86.80
2023-01-06T02:49:29.848Z,86.80
2023-01-06T02:52:12.916Z,86.60
2023-01-06T02:54:51.185Z,87.00
2023-01-06T02:57:35.751Z,87.50
2023-01-06T03:00:13.443Z,88.00
2023-01-06T03:02:40.813Z,87.30
2023-01-06T03:05:07.801Z,87.80
2023-01-06T03:07:34.404Z,87.80
2023-01-06T03:10:01.027Z,88.10
2023-01-06T03:13:14.973Z,88.20
2023-01-06T03:15:41.199Z,88.70
2023-01-06T03:18:08.457Z,88.80
2023-01-06T03:20:34.878Z,89.20
2023-01-06T03:23:01.107Z,89.40
2023-01-06T03:25:27.710Z,89.90
2023-01-06T03:27:54.106Z,90.10
2023-01-06T03:30:20.809Z,89.70
2023-01-06T03:33:22.266Z,90.10
2023-01-06T03:37:57.692Z,90.80
2023-01-06T03:40:43.519Z,90.80
2023-01-06T03:43:59.621Z,91.20
2023-01-06T03:46:37.583Z,91.50
2023-01-06T03:49:34.372Z,91.90
2023-01-06T03:52:12.765Z,92.30
2023-01-06T03:55:39.827Z,92.60
2023-01-06T03:58:06.148Z,92.60
2023-01-06T04:00:34.135Z,93.10
2023-01-06T04:03:00.394Z,93.30
2023-01-06T04:05:27.280Z,93.40
2023-01-06T04:07:53.834Z,93.70
2023-01-06T04:10:20.676Z,93.80
2023-01-06T04:12:46.892Z,93.80
2023-01-06T04:15:21.163Z,93.50
2023-01-06T04:17:47.823Z,93.10
2023-01-06T04:20:17.131Z,93.10
2023-01-06T04:22:43.391Z,92.80
2023-01-06T04:25:09.696Z,92.70
2023-01-06T04:27:35.854Z,92.70
2023-01-06T04:30:02.414Z,92.60
2023-01-06T04:32:28.994Z,92.40
2023-01-06T04:34:55.448Z,91.80
2023-01-06T04:37:21.778Z,92.00
2023-01-06T04:39:48.108Z,91.90
2023-01-06T04:42:14.827Z,91.70
2023-01-06T04:44:41.920Z,91.80
2023-01-06T04:47:09.226Z,91.40
2023-01-06T04:49:35.836Z,91.40
2023-01-06T04:52:02.091Z,91.30
2023-01-06T04:54:28.235Z,91.10
2023-01-06T04:56:54.458Z,91.00
2023-01-06T04:59:20.589Z,91.00
2023-01-06T05:01:46.886Z,91.10
2023-01-06T05:04:13.198Z,91.00
2023-01-06T05:06:39.484Z,91.10
2023-01-06T05:09:06.452Z,91.00
2023-01-06T05:11:32.592Z,90.60
2023-01-06T05:13:58.858Z,90.80
2023-01-06T05:16:32.233Z,91.20
2023-01-06T05:18:59.343Z,91.20
2023-01-06T05:21:26.447Z,91.10
2023-01-06T05:23:52.768Z,91.20
2023-01-06T05:26:21.156Z,91.50
2023-01-06T05:28:47.484Z,91.40
2023-01-06T05:31:13.682Z,91.10
2023-01-06T05:33:40.467Z,91.30
2023-01-06T05:36:08.811Z,91.40
2023-01-06T05:38:35.342Z,91.70
2023-01-06T05:41:01.527Z,91.90
2023-01-06T05:43:28.259Z,91.40
2023-01-06T05:45:54.538Z,91.30
2023-01-06T05:48:25.445Z,91.40
2023-01-06T05:50:51.568Z,91.50
2023-01-06T05:53:17.851Z,91.50
2023-01-06T05:55:43.986Z,92.70
2023-01-06T05:58:10.201Z,91.80
2023-01-06T06:00:36.409Z,92.00
2023-01-06T06:03:02.679Z,92.70
2023-01-06T06:05:28.842Z,92.80
2023-01-06T06:07:55.519Z,93.40
2023-01-06T06:10:22.329Z,93.40
2023-01-06T06:12:50.753Z,93.70
2023-01-06T06:15:17.071Z,94.10
2023-01-06T06:17:43.308Z,94.40
2023-01-06T06:20:09.848Z,94.50
2023-01-06T06:22:36.065Z,95.00
2023-01-06T06:25:02.291Z,95.30
2023-01-06T06:27:28.793Z,95.10
2023-01-06T06:29:54.947Z,95.20
2023-01-06T06:32:21.612Z,94.00
2023-01-06T06:34:53.536Z,93.70
2023-01-06T06:37:19.885Z,93.50
2023-01-06T06:39:46.077Z,93.60
2023-01-06T06:42:13.256Z,93.30
2023-01-06T06:44:39.715Z,93.20
2023-01-06T06:47:06.116Z,93.50
2023-01-06T06:49:32.325Z,93.40
2023-01-06T06:51:58.575Z,93.10
2023-01-06T06:54:24.755Z,93.60
2023-01-06T06:56:51.377Z,93.90
2023-01-06T06:59:18.471Z,93.70
2023-01-06T07:01:44.876Z,93.50
2023-01-06T07:04:11.499Z,93.20
2023-01-06T07:06:37.784Z,93.40
2023-01-06T07:09:04.112Z,92.60
2023-01-06T07:11:30.297Z,92.60
2023-01-06T07:13:56.567Z,92.70
2023-01-06T07:16:24.692Z,93.00
2023-01-06T07:18:50.962Z,93.30
2023-01-06T07:21:17.184Z,93.20
2023-01-06T07:23:43.366Z,93.20
2023-01-06T07:26:12.103Z,92.70
2023-01-06T07:28:41.706Z,93.20
2023-01-06T07:31:07.951Z,93.10
2023-01-06T07:33:34.261Z,92.20
2023-01-06T07:36:00.855Z,92.10
2023-01-06T07:38:27.065Z,92.30
2023-01-06T07:40:57.736Z,92.10
2023-01-06T07:43:25.016Z,92.40
2023-01-06T07:45:51.287Z,92.30
2023-01-06T07:48:18.701Z,92.00
2023-01-06T07:50:45.226Z,91.50
2023-01-06T07:53:11.639Z,92.30
2023-01-06T07:55:37.963Z,91.50
2023-01-06T07:58:08.135Z,91.40
2023-01-06T08:00:34.650Z,91.50
2023-01-06T08:03:04.983Z,91.30
2023-01-06T08:05:31.251Z,91.20
2023-01-06T08:07:57.951Z,91.50
2023-01-06T08:10:24.240Z,91.00
2023-01-06T08:12:50.440Z,90.90
2023-01-06T08:15:16.715Z,90.90
2023-01-06T08:17:43.238Z,90.80
2023-01-06T08:20:09.993Z,90.70
2023-01-06T08:22:36.176Z,91.20
2023-01-06T08:25:03.064Z,91.00
2023-01-06T08:27:29.285Z,90.30
2023-01-06T08:29:56.566Z,90.40
2023-01-06T08:32:22.889Z,90.30
2023-01-06T08:34:49.423Z,90.20
2023-01-06T08:37:15.730Z,90.30
2023-01-06T08:39:41.871Z,90.70
2023-01-06T08:42:08.040Z,90.10
2023-01-06T08:44:34.391Z,89.90
2023-01-06T08:47:00.648Z,89.40
2023-01-06T08:49:27.685Z,89.20
2023-01-06T08:51:53.955Z,90.10
2023-01-06T08:54:20.248Z,89.20
2023-01-06T08:56:47.063Z,89.00
2023-01-06T08:59:14.787Z,88.20
2023-01-06T09:01:41.438Z,87.70
2023-01-06T09:04:08.781Z,88.80
2023-01-06T09:06:35.067Z,88.30
2023-01-06T09:09:02.752Z,88.60
2023-01-06T09:11:29.064Z,86.90
2023-01-06T09:13:56.518Z,88.50
2023-01-06T09:16:22.762Z,87.00
2023-01-06T09:18:50.320Z,87.30
2023-01-06T09:21:17.868Z,86.70
2023-01-06T09:23:44.203Z,85.80
2023-01-06T09:26:10.416Z,86.10
2023-01-06T09:28:37.674Z,86.20
2023-01-06T09:31:04.049Z,86.50
2023-01-06T09:33:30.329Z,87.10
2023-01-06T09:35:56.553Z,85.20
2023-01-06T09:38:22.826Z,84.90
2023-01-06T09:41:26.376Z,84.80
2023-01-06T09:43:56.098Z,85.20
2023-01-06T09:46:25.630Z,85.60
2023-01-06T09:49:15.195Z,85.30
2023-01-06T09:51:41.518Z,85.50
2023-01-06T09:54:21.080Z,87.20
2023-01-06T09:56:53.133Z,85.70
2023-01-06T09:59:30.912Z,85.80
2023-01-06T10:01:59.215Z,85.40
2023-01-06T10:04:27.304Z,86.00
2023-01-06T10:07:20.136Z,86.30
2023-01-06T10:10:18.192Z,85.50
2023-01-06T10:13:03.155Z,84.80
2023-01-06T10:15:40.755Z,85.00
2023-01-06T10:18:25.747Z,84.30
2023-01-06T10:20:55.938Z,84.20
2023-01-06T10:25:56.687Z,84.30
2023-01-06T10:28:37.776Z,84.90
2023-01-06T10:31:13.442Z,84.40
2023-01-06T10:33:53.573Z,83.70
2023-01-06T10:36:31.913Z,83.60
2023-01-06T10:38:59.291Z,83.70
2023-01-06T10:41:50.436Z,83.50
2023-01-06T10:44:16.862Z,83.30
2023-01-06T10:46:45.127Z,85.70
2023-01-06T10:49:15.147Z,84.40
2023-01-06T10:51:51.758Z,82.10
2023-01-06T10:54:21.541Z,81.70
2023-01-06T10:56:51.902Z,82.50
2023-01-06T10:59:18.120Z,82.90
2023-01-06T11:01:52.182Z,83.30
2023-01-06T11:04:19.447Z,82.10
2023-01-06T11:06:50.761Z,81.40
2023-01-06T11:10:30.501Z,82.00
2023-01-06T11:12:58.831Z,82.10
2023-01-06T11:15:29.406Z,82.20
2023-01-06T11:17:55.666Z,83.30
2023-01-06T11:20:32.957Z,84.40
2023-01-06T11:23:22.321Z,83.40
2023-01-06T11:26:04.128Z,82.50
2023-01-06T11:28:30.382Z,84.00
2023-01-06T11:31:29.841Z,80.50
2023-01-06T11:34:03.067Z,81.20
2023-01-06T11:36:30.942Z,80.60
2023-01-06T11:39:02.640Z,82.70
2023-01-06T11:41:40.155Z,81.60
2023-01-06T11:44:08.868Z,81.90
2023-01-06T11:46:36.811Z,82.50
2023-01-06T11:49:26.843Z,85.40
2023-01-06T11:52:03.723Z,84.80
2023-01-06T11:54:38.585Z,85.40
2023-01-06T11:57:45.449Z,83.70
2023-01-06T12:00:45.824Z,84.80
2023-01-06T12:03:35.292Z,85.80
2023-01-06T12:06:43.921Z,84.40
2023-01-06T12:09:38.831Z,85.70
2023-01-06T12:12:07.130Z,85.00
2023-01-06T12:14:35.066Z,85.80
2023-01-06T12:17:31.451Z,85.30
2023-01-06T12:20:13.412Z,85.50
2023-01-06T12:23:28.781Z,86.30
2023-01-06T12:26:04.527Z,86.00
2023-01-06T12:28:35.070Z,87.20
2023-01-06T12:34:36.322Z,86.50
2023-01-06T12:45:13.245Z,90.10
2023-01-06T12:47:58.850Z,92.10
2023-01-06T12:50:49.943Z,92.60
2023-01-06T12:53:31.457Z,92.60
2023-01-06T12:59:17.937Z,93.40
2023-01-06T13:02:15.984Z,92.90
2023-01-06T13:08:01.733Z,92.80
2023-01-06T13:10:46.713Z,92.50
2023-01-06T13:14:17.629Z,92.40
2023-01-06T13:17:36.415Z,92.60
2023-01-06T13:20:06.568Z,92.60
2023-01-06T13:29:41.393Z,92.40
2023-01-06T13:39:31.640Z,92.00
2023-01-06T13:41:58.154Z,92.30
2023-01-06T13:44:30.014Z,92.30
2023-01-06T13:47:17.732Z,92.50
2023-01-06T13:49:44.383Z,93.10
2023-01-06T13:52:22.959Z,93.10
2023-01-06T13:55:06.235Z,92.60
2023-01-06T13:57:36.200Z,93.00
2023-01-06T14:00:45.876Z,93.10
2023-01-06T14:03:21.635Z,93.20
2023-01-06T14:05:49.204Z,92.80
2023-01-06T14:08:16.851Z,92.50
2023-01-06T14:10:44.814Z,92.60
2023-01-06T14:14:24.792Z,92.90
2023-01-06T14:16:51.418Z,92.60
2023-01-06T14:19:19.171Z,93.00
2023-01-06T14:21:46.885Z,92.50
2023-01-06T14:25:21.675Z,92.70
2023-01-06T14:28:23.844Z,92.90
2023-01-06T14:30:51.445Z,93.10
2023-01-06T14:33:39.454Z,93.20
2023-01-06T14:36:15.434Z,93.50
2023-01-06T14:38:49.741Z,93.60
2023-01-06T14:42:06.132Z,93.70
2023-01-06T14:44:44.285Z,93.80
2023-01-06T14:48:41.076Z,93.80
2023-01-06T14:51:09.966Z,93.80
2023-01-06T14:53:38.442Z,93.80
2023-01-06T14:56:05.879Z,93.70
2023-01-06T14:58:38.891Z,93.60
2023-01-06T15:01:25.231Z,93.70
2023-01-06T15:03:59.102Z,93.60
2023-01-06T15:06:26.330Z,93.60
2023-01-06T15:08:53.081Z,93.50
2023-01-06T15:11:27.405Z,93.70
2023-01-06T15:13:53.804Z,93.80
2023-01-06T15:16:39.921Z,93.90
2023-01-06T15:19:12.785Z,93.90
2023-01-06T15:21:44.442Z,94.10
2023-01-06T15:24:25.346Z,94.10
2023-01-06T15:26:52.343Z,94.20
2023-01-06T15:29:24.212Z,94.30
2023-01-06T15:31:52.125Z,94.30
2023-01-06T15:34:33.116Z,94.20
2023-01-06T15:37:00.122Z,94.20
2023-01-06T15:39:31.391Z,94.20
2023-01-06T15:41:59.388Z,94.40
2023-01-06T15:44:30.701Z,94.30
2023-01-06T15:48:50.985Z,94.30
2023-01-06T15:51:19.259Z,94.40
2023-01-06T15:53:54.042Z,94.60
2023-01-06T15:56:23.600Z,94.90
2023-01-06T15:58:52.710Z,94.90
2023-01-06T16:01:23.235Z,95.00
2023-01-06T16:03:54.423Z,94.90
2023-01-06T16:06:32.377Z,94.90
2023-01-06T16:15:48.768Z,95.10
2023-01-06T16:18:16.762Z,95.80
2023-01-06T16:20:43.111Z,95.80
2023-01-06T16:23:27.288Z,95.90
2023-01-06T16:26:09.628Z,96.00
2023-01-06T16:28:39.876Z,96.10
2023-01-06T16:31:09.418Z,96.10
2023-01-06T16:33:45.373Z,96.20
2023-01-06T16:36:13.296Z,96.30
2023-01-06T16:38:40.185Z,96.50
2023-01-06T16:41:07.154Z,96.60
2023-01-06T16:43:34.834Z,96.70
2023-01-06T16:46:05.183Z,96.80
2023-01-06T16:48:32.233Z,96.80
2023-01-06T16:50:59.304Z,97.00
2023-01-06T16:53:27.029Z,97.20
2023-01-06T16:55:54.630Z,97.30
2023-01-06T16:58:26.806Z,97.40
2023-01-06T17:00:55.464Z,97.30
2023-01-06T17:03:23.741Z,97.30
2023-01-06T17:05:52.665Z,97.40
2023-01-06T17:08:31.241Z,97.60
2023-01-06T17:10:59.611Z,97.90
2023-01-06T17:13:36.071Z,97.80
2023-01-06T17:16:13.648Z,97.80
2023-01-06T17:18:51.239Z,97.80
2023-01-06T17:21:28.898Z,97.70
2023-01-06T17:24:06.909Z,97.50
2023-01-06T17:26:33.897Z,97.50
2023-01-06T17:29:13.869Z,97.40
2023-01-06T17:31:42.857Z,97.20
2023-01-06T17:34:12.223Z,97.00
2023-01-06T17:36:40.467Z,96.30
2023-01-06T17:40:17.855Z,95.70
2023-01-06T17:42:44.152Z,95.20
2023-01-06T17:45:21.071Z,94.80
2023-01-06T17:47:49.781Z,94.40
2023-01-06T17:50:32.771Z,94.50
2023-01-06T17:53:32.037Z,94.50
2023-01-06T17:56:00.771Z,94.90
2023-01-06T17:58:28.818Z,94.80
2023-01-06T18:00:55.171Z,95.00
2023-01-06T18:03:25.646Z,95.10
2023-01-06T18:06:13.231Z,95.30
2023-01-06T18:08:39.911Z,95.30
2023-01-06T18:11:23.109Z,95.50
2023-01-06T18:13:52.667Z,95.50
2023-01-06T18:16:37.294Z,95.40
2023-01-06T18:22:37.544Z,95.60
2023-01-06T18:25:06.218Z,95.50
2023-01-06T18:27:33.546Z,95.50
2023-01-06T18:30:23.449Z,95.60
2023-01-06T18:32:52.053Z,95.60
2023-01-06T18:35:24.559Z,95.60
2023-01-06T18:37:51.261Z,95.60
2023-01-06T18:40:20.355Z,95.60
2023-01-06T18:42:50.182Z,95.60
2023-01-06T18:45:38.479Z,95.50
2023-01-06T18:48:31.466Z,95.60
2023-01-06T18:50:59.330Z,95.40
2023-01-06T18:53:31.995Z,95.40
2023-01-06T18:56:02.871Z,95.30
2023-01-06T18:58:56.640Z,95.20
2023-01-06T19:01:26.586Z,95.10
2023-01-06T19:04:37.643Z,94.90
2023-01-06T19:07:27.659Z,94.90
2023-01-06T19:09:54.620Z,94.80
2023-01-06T19:12:32.182Z,94.80
2023-01-06T19:15:29.260Z,95.00
2023-01-06T19:18:01.934Z,95.00
2023-01-06T19:20:34.301Z,95.00
2023-01-06T19:23:03.155Z,95.00
2023-01-06T19:25:35.047Z,95.20
2023-01-06T19:28:16.874Z,95.30
2023-01-06T19:31:04.797Z,95.40
2023-01-06T19:34:14.102Z,95.50
2023-01-06T19:36:46.320Z,95.40
2023-01-06T19:41:07.641Z,95.40
2023-01-06T19:43:34.894Z,95.30
2023-01-06T19:46:23.709Z,95.30
2023-01-06T19:48:50.771Z,95.20
2023-01-06T19:51:51.511Z,95.10
2023-01-06T19:54:28.611Z,95.20
2023-01-06T19:56:55.563Z,95.20
2023-01-06T19:59:29.241Z,95.20
2023-01-06T20:02:38.943Z,95.10
2023-01-06T20:05:08.726Z,95.20
2023-01-06T20:07:35.145Z,95.10
2023-01-06T20:10:02.131Z,95.10
2023-01-06T20:12:29.411Z,94.90
2023-01-06T20:14:56.393Z,94.80
2023-01-06T20:17:23.865Z,94.60
2023-01-06T20:19:50.853Z,94.40
2023-01-06T20:22:19.870Z,94.30
2023-01-06T20:24:51.595Z,94.30
2023-01-06T20:27:18.934Z,94.20
2023-01-06T20:29:46.969Z,94.20
2023-01-06T20:32:17.606Z,94.00
2023-01-06T20:34:44.647Z,93.90
2023-01-06T20:37:11.902Z,93.90
2023-01-06T20:39:40.867Z,93.90
2023-01-06T20:42:08.810Z,93.80
2023-01-06T20:44:40.278Z,93.80
2023-01-06T20:47:12.618Z,93.90
2023-01-06T20:49:39.319Z,94.00
2023-01-06T20:52:15.065Z,94.10
2023-01-06T20:54:42.984Z,94.00
2023-01-06T20:57:13.049Z,93.90
2023-01-06T20:59:41.018Z,93.90
2023-01-06T21:02:09.614Z,93.90
2023-01-06T21:04:36.036Z,93.80
2023-01-06T21:07:03.380Z,94.00
2023-01-06T21:09:30.963Z,94.00
2023-01-06T21:11:58.751Z,94.20
2023-01-06T21:14:25.680Z,94.20
2023-01-06T21:16:52.735Z,94.30
2023-01-06T21:19:25.066Z,94.40
2023-01-06T21:21:52.388Z,94.20
2023-01-06T21:24:19.801Z,93.90
2023-01-06T21:26:46.493Z,93.80
2023-01-06T21:29:14.655Z,93.80
2023-01-06T21:31:43.345Z,93.60
2023-01-06T21:34:13.942Z,93.70
2023-01-06T21:36:42.273Z,93.60
2023-01-06T21:39:12.347Z,93.50
2023-01-06T21:41:57.654Z,93.50
2023-01-06T21:44:27.103Z,93.30
2023-01-06T21:46:54.777Z,93.20
2023-01-06T21:49:25.854Z,93.10
2023-01-06T21:51:55.647Z,93.20
2023-01-06T21:54:25.262Z,93.30
2023-01-06T21:56:52.715Z,93.50
2023-01-06T21:59:19.178Z,93.50
2023-01-06T22:01:46.436Z,93.60
2023-01-06T22:04:13.711Z,93.70
2023-01-06T22:06:42.690Z,93.60
2023-01-06T22:09:19.822Z,93.70
2023-01-06T22:11:47.660Z,93.70
2023-01-06T22:14:19.381Z,94.10
2023-01-06T22:16:49.152Z,94.30
2023-01-06T22:19:15.974Z,94.40
2023-01-06T22:21:48.813Z,94.70
2023-01-06T22:24:16.023Z,94.70
2023-01-06T22:26:42.371Z,94.80
2023-01-06T22:29:08.908Z,94.80
2023-01-06T22:31:36.539Z,95.00
2023-01-06T22:34:03.361Z,94.90
2023-01-06T22:36:30.191Z,95.10
2023-01-06T22:38:57.225Z,95.10
2023-01-06T22:41:24.306Z,95.30
2023-01-06T22:43:50.903Z,95.60
2023-01-06T22:46:18.080Z,95.50
2023-01-06T22:48:45.733Z,95.90
2023-01-06T22:51:12.474Z,96.00
2023-01-06T22:53:39.003Z,96.20
2023-01-06T22:56:08.728Z,96.50
2023-01-06T22:58:37.412Z,96.60
2023-01-06T23:01:04.569Z,96.70
2023-01-06T23:03:31.652Z,96.70
2023-01-06T23:06:03.179Z,96.70
2023-01-06T23:08:30.808Z,96.70
2023-01-06T23:11:02.515Z,96.70
2023-01-06T23:13:29.089Z,96.70
2023-01-06T23:16:04.593Z,96.90
2023-01-06T23:18:31.958Z,96.70
2023-01-06T23:21:11.224Z,96.60
2023-01-06T23:23:38.470Z,96.60
2023-01-06T23:26:08.611Z,96.90
2023-01-06T23:28:35.696Z,96.90
2023-01-06T23:31:37.740Z,96.90
2023-01-06T23:34:06.106Z,96.80
2023-01-06T23:36:33.759Z,96.90
2023-01-06T23:39:00.877Z,97.00
2023-01-06T23:41:29.365Z,96.90
2023-01-06T23:43:56.247Z,97.20
2023-01-06T23:46:26.044Z,97.30
2023-01-06T23:48:53.175Z,97.20
2023-01-06T23:51:19.707Z,97.60
2023-01-06T23:53:46.562Z,97.80
2023-01-06T23:56:14.760Z,98.00
2023-01-06T23:58:42.915Z,98.20
